Finlandia — OJPP — position and weather

sailwx.info

Track history (hours):
 
Tides and Currents Weather Stations Pressure Air Temp Water Temp Dewpoint Dewpoint Depression Visibility Wind Speed Wind Dir Waves Ship Positions

Finlandia

Last reported at 2014-Sep-23 07:33 UTC. Time now 2014-Sep-23 08:24 UTC.
Position N 59°29' E 024°45'.

Length 175 m; draft 7 m.

Type: Ship (hazmat cat A). MMSI: 230628000.

Date/timePositionNaut miles runAvg speedWind from/ knotsBaromVisibWave heightAir tempDewpointWater temp
2014-Sep-23 07:33N 59°29' E 024°45'2020.1
2014-Sep-23 06:33N 59°49' E 024°47'2019.7
2014-Sep-23 05:33N 60°09' E 024°54'1 0.7
2014-Sep-23 04:32N 60°09' E 024°55'0 0.0
2014-Sep-23 03:32N 60°09' E 024°55'0 0.0
2014-Sep-23 02:32N 60°09' E 024°55'0 0.0
2014-Sep-23 01:32N 60°09' E 024°55'0 0.0
2014-Sep-23 00:32N 60°09' E 024°55'0 0.0
2014-Sep-22 23:32N 60°09' E 024°55'0 0.0
2014-Sep-22 22:32N 60°09' E 024°55'0 0.0
2014-Sep-22 21:32N 60°09' E 024°55'0 0.0
2014-Sep-22 20:32N 60°09' E 024°55'0 0.0
2014-Sep-22 19:32N 60°09' E 024°55'1 0.8
2014-Sep-22 18:33N 60°09' E 024°54'2221.7
2014-Sep-22 17:33N 59°47' E 024°49'2020.3
2014-Sep-22 16:34N 59°27' E 024°46'0 0.3
2014-Sep-22 15:33N 59°27' E 024°46'1211.6
2014-Sep-22 14:32N 59°38' E 024°40'2017.2
2014-Sep-22 13:23N 59°57' E 024°53'1214.8
2014-Sep-22 12:34N 60°09' E 024°55'0 0.3
2014-Sep-22 11:33N 60°09' E 024°55'2315.5
2014-Sep-22 10:04N 59°46' E 024°50'1120.3
2014-Sep-22 09:30N 59°36' E 024°41'9 6.9
2014-Sep-22 08:09N 59°27' E 024°46'4 7.0
2014-Sep-22 07:30N 59°31' E 024°43'1819.3
2014-Sep-22 06:33N 59°49' E 024°47'1919.2
2014-Sep-22 05:33N 60°08' E 024°54'1 1.1
2014-Sep-22 04:31N 60°09' E 024°55'0 0.0
2014-Sep-22 03:28N 60°09' E 024°55'0 0.0
2014-Sep-22 02:31N 60°09' E 024°55'0 0.0
2014-Sep-22 01:19N 60°09' E 024°55'0 0.0
2014-Sep-22 00:19N 60°09' E 024°55'0 0.0
2014-Sep-21 23:25N 60°09' E 024°55'0 0.0
2014-Sep-21 22:28N 60°09' E 024°55'0 0.0
2014-Sep-21 21:31N 60°09' E 024°55'0 0.0
2014-Sep-21 20:31N 60°09' E 024°55'0 0.0
2014-Sep-21 19:31N 60°09' E 024°55'0 0.3
2014-Sep-21 18:33N 60°09' E 024°55'2020.0
2014-Sep-21 17:33N 59°50' E 024°46'2322.6
2014-Sep-21 16:34N 59°27' E 024°47'1 0.6
2014-Sep-21 15:33N 59°27' E 024°46'6 5.5
2014-Sep-21 14:33N 59°32' E 024°43'2621.3
2014-Sep-21 13:19N 59°58' E 024°54'1115.0
2014-Sep-21 12:33N 60°09' E 024°55'0 0.0
2014-Sep-21 11:33N 60°09' E 024°55'3517.4
2014-Sep-21 09:34N 59°35' E 024°42'9 8.5
2014-Sep-21 08:31N 59°27' E 024°46'3 3.2
2014-Sep-21 07:33N 59°30' E 024°45'2118.8
2014-Sep-21 06:26N 59°51' E 024°48'1719.4
2014-Sep-21 05:33N 60°07' E 024°54'2 1.8
2014-Sep-21 04:32N 60°09' E 024°55'0 0.0
2014-Sep-21 03:29N 60°09' E 024°55'0 0.0
2014-Sep-21 02:32N 60°09' E 024°55'0 0.0
2014-Sep-21 01:32N 60°09' E 024°55'0 0.0
2014-Sep-21 00:32N 60°09' E 024°55'0 0.0
2014-Sep-20 23:32N 60°09' E 024°55'0 0.0
2014-Sep-20 22:32N 60°09' E 024°55'0 0.0
2014-Sep-20 21:29N 60°09' E 024°55'0 0.0
2014-Sep-20 20:32N 60°09' E 024°55'0 0.0
2014-Sep-20 19:32N 60°09' E 024°55'0 0.2
2014-Sep-20 18:33N 60°09' E 024°55'2019.8
2014-Sep-20 17:34N 59°50' E 024°46'2222.0
2014-Sep-20 16:34N 59°28' E 024°47'1 1.3
2014-Sep-20 15:33N 59°27' E 024°46'1110.7
2014-Sep-20 14:33N 59°37' E 024°40'2217.0
2014-Sep-20 13:16N 59°58' E 024°54'1115.4
2014-Sep-20 12:34N 60°09' E 024°54'1 0.6
2014-Sep-20 11:32N 60°09' E 024°55'3216.2
2014-Sep-20 09:33N 59°38' E 024°42'1110.8
2014-Sep-20 08:31N 59°27' E 024°46'4 3.8
2014-Sep-20 07:33N 59°30' E 024°44'2019.4
2014-Sep-20 06:31N 59°50' E 024°46'1818.9
2014-Sep-20 05:33N 60°08' E 024°54'1 1.2
2014-Sep-20 04:31N 60°09' E 024°55'0 0.0
2014-Sep-20 03:28N 60°09' E 024°55'0 0.0
2014-Sep-20 02:19N 60°09' E 024°55'0 0.0
2014-Sep-20 01:31N 60°09' E 024°55'0 0.0
2014-Sep-19 23:31N 60°09' E 024°55'0 0.0
2014-Sep-19 22:31N 60°09' E 024°55'0 0.0
2014-Sep-19 21:31N 60°09' E 024°55'0 0.0
2014-Sep-19 20:31N 60°09' E 024°55'0 0.0
2014-Sep-19 19:31N 60°09' E 024°55'0 0.4
2014-Sep-19 18:28N 60°09' E 024°55'1920.7
2014-Sep-19 17:34N 59°50' E 024°48'2322.8
2014-Sep-19 16:33N 59°28' E 024°47'1 0.9
2014-Sep-19 15:33N 59°27' E 024°46'1111.2
2014-Sep-19 14:34N 59°38' E 024°40'1817.5
2014-Sep-19 13:31N 59°55' E 024°52'1415.0
2014-Sep-19 12:33N 60°09' E 024°55'0 0.1
2014-Sep-19 11:33N 60°09' E 024°55'3416.9
2014-Sep-19 09:33N 59°36' E 024°41'10 9.3
2014-Sep-19 08:30N 59°27' E 024°46'4 4.1
2014-Sep-19 07:34N 59°31' E 024°44'1919.4
2014-Sep-19 06:34N 59°50' E 024°47'1919.0
2014-Sep-19 05:33N 60°09' E 024°54'1 0.7
2014-Sep-19 04:31N 60°09' E 024°55'0 0.0
2014-Sep-19 03:28N 60°09' E 024°55'0 0.0
2014-Sep-19 02:31N 60°09' E 024°55'0 0.0
2014-Sep-19 01:28N 60°09' E 024°55'0 0.0
2014-Sep-19 00:31N 60°09' E 024°55'0 0.0
2014-Sep-18 23:25N 60°09' E 024°55'0 0.0
2014-Sep-18 22:31N 60°09' E 024°55'0 0.0
2014-Sep-18 21:31N 60°09' E 024°55'0 0.0
2014-Sep-18 20:31N 60°09' E 024°55'0 0.0
2014-Sep-18 19:31N 60°09' E 024°55'0 0.5
2014-Sep-18 18:33N 60°09' E 024°55'2321.7
2014-Sep-18 17:28N 59°46' E 024°49'1920.4
2014-Sep-18 16:33N 59°27' E 024°46'0 0.3
2014-Sep-18 15:34N 59°27' E 024°46'1110.9
2014-Sep-18 14:33N 59°37' E 024°40'1917.4
2014-Sep-18 13:29N 59°55' E 024°52'1415.2
2014-Sep-18 12:33N 60°09' E 024°55'1 0.5
2014-Sep-18 11:31N 60°09' E 024°55'2316.0
2014-Sep-18 10:04N 59°46' E 024°49'1020.3
2014-Sep-18 09:33N 59°36' E 024°41'10 9.6
2014-Sep-18 08:31N 59°27' E 024°46'3 2.7
2014-Sep-18 07:33N 59°29' E 024°45'1918.8
2014-Sep-18 06:33N 59°48' E 024°46'2019.7
2014-Sep-18 05:33N 60°07' E 024°54'2 1.9
2014-Sep-18 04:32N 60°09' E 024°55'0 0.0
2014-Sep-18 03:32N 60°09' E 024°55'0 0.0
2014-Sep-18 02:32N 60°09' E 024°55'0 0.0
2014-Sep-18 01:17N 60°09' E 024°55'0 0.0
2014-Sep-18 00:32N 60°09' E 024°55'0 0.0
2014-Sep-17 23:32N 60°09' E 024°55'0 0.0
2014-Sep-17 22:32N 60°09' E 024°55'0 0.0
2014-Sep-17 21:32N 60°09' E 024°55'0 0.0
2014-Sep-17 20:23N 60°09' E 024°55'0 0.0
2014-Sep-17 19:29N 60°09' E 024°55'1 0.6
2014-Sep-17 18:33N 60°09' E 024°55'2121.1
2014-Sep-17 17:33N 59°48' E 024°46'2121.1
2014-Sep-17 16:34N 59°27' E 024°47'1 0.5
2014-Sep-17 15:24N 59°27' E 024°46'1112.6
2014-Sep-17 14:34N 59°37' E 024°40'1917.5
2014-Sep-17 13:30N 59°54' E 024°52'1515.5
2014-Sep-17 12:33N 60°09' E 024°55'0 0.4
2014-Sep-17 11:31N 60°09' E 024°55'1413.9
2014-Sep-17 10:30N 59°55' E 024°51'1920.1
2014-Sep-17 09:33N 59°37' E 024°41'1110.4
2014-Sep-17 08:33N 59°27' E 024°46'3 3.0
2014-Sep-17 07:33N 59°30' E 024°45'1919.1
2014-Sep-17 06:34N 59°49' E 024°49'2019.7
2014-Sep-17 05:33N 60°08' E 024°54'1 1.1
2014-Sep-17 04:31N 60°09' E 024°55'0 0.0
2014-Sep-17 03:31N 60°09' E 024°55'0 0.0
2014-Sep-17 02:26N 60°09' E 024°55'0 0.0
2014-Sep-17 01:29N 60°09' E 024°55'0 0.0
2014-Sep-17 00:31N 60°09' E 024°55'0 0.0
2014-Sep-16 23:32N 60°09' E 024°55'0 0.0
2014-Sep-16 21:31N 60°09' E 024°55'0 0.0
2014-Sep-16 20:32N 60°09' E 024°55'0 0.0
2014-Sep-16 19:28N 60°09' E 024°55'0 0.5
2014-Sep-16 18:33N 60°09' E 024°55'2321.3
2014-Sep-16 17:29N 59°46' E 024°49'1921.0
2014-Sep-16 16:34N 59°27' E 024°46'0 0.3
2014-Sep-16 15:33N 59°27' E 024°46'1111.5
2014-Sep-16 14:33N 59°38' E 024°40'2217.6
2014-Sep-16 13:20N 59°58' E 024°54'1114.3
2014-Sep-16 12:34N 60°09' E 024°55'0 0.2
2014-Sep-16 11:33N 60°09' E 024°55'2417.0
2014-Sep-16 10:06N 59°45' E 024°48'1120.3
2014-Sep-16 09:33N 59°34' E 024°42'8 7.7
2014-Sep-16 08:33N 59°27' E 024°46'4 3.9
2014-Sep-16 07:33N 59°30' E 024°44'1919.4
2014-Sep-16 06:33N 59°50' E 024°49'1919.1
2014-Sep-16 05:34N 60°09' E 024°54'1 0.7
2014-Sep-16 04:33N 60°09' E 024°55'0 0.0
2014-Sep-16 03:33N 60°09' E 024°55'0 0.0
2014-Sep-16 02:33N 60°09' E 024°55'0 0.0
2014-Sep-16 01:30N 60°09' E 024°55'0 0.0
2014-Sep-16 00:33N 60°09' E 024°55'0 0.0
2014-Sep-15 23:30N 60°09' E 024°55'0 0.0
2014-Sep-15 22:21N 60°09' E 024°55'0 0.0
2014-Sep-15 21:24N 60°09' E 024°55'0 0.0
2014-Sep-15 20:30N 60°09' E 024°55'0 0.0
2014-Sep-15 19:33N 60°09' E 024°55'1 1.2
2014-Sep-15 18:33N 60°08' E 024°54'2222.1
2014-Sep-15 17:34N 59°46' E 024°45'2019.7
2014-Sep-15 16:33N 59°27' E 024°46'0 0.0
2014-Sep-15 15:31N 59°27' E 024°46'1211.5
2014-Sep-15 14:31N 59°38' E 024°40'1717.1
2014-Sep-15 13:33N 59°54' E 024°52'1515.5
2014-Sep-15 12:33N 60°09' E 024°55'0 0.5
2014-Sep-15 11:33N 60°09' E 024°55'2115.6
2014-Sep-15 10:13N 59°49' E 024°48'1420.6
2014-Sep-15 09:33N 59°35' E 024°42'6 3.0
2014-Sep-15 07:33N 59°30' E 024°45'1918.8
2014-Sep-15 06:33N 59°48' E 024°49'2019.8
2014-Sep-15 05:33N 60°08' E 024°54'2 1.6
2014-Sep-15 04:31N 60°09' E 024°55'0 0.0
2014-Sep-15 03:31N 60°09' E 024°55'0 0.0
2014-Sep-15 02:31N 60°09' E 024°55'0 0.0
2014-Sep-15 01:28N 60°09' E 024°55'0 0.0
2014-Sep-15 00:31N 60°09' E 024°55'0 0.0
2014-Sep-14 23:19N 60°09' E 024°55'0 0.0
2014-Sep-14 22:25N 60°09' E 024°55'0 0.0
2014-Sep-14 21:31N 60°09' E 024°55'0 0.0
2014-Sep-14 20:22N 60°09' E 024°55'0 0.0
2014-Sep-14 19:31N 60°09' E 024°55'0 0.4
2014-Sep-14 18:33N 60°09' E 024°55'2321.0
2014-Sep-14 17:29N 59°47' E 024°48'2021.4
2014-Sep-14 16:33N 59°27' E 024°46'0 0.3
2014-Sep-14 15:33N 59°27' E 024°46'6 5.9
2014-Sep-14 14:33N 59°32' E 024°43'2520.1
2014-Sep-14 13:20N 59°57' E 024°53'1215.9
2014-Sep-14 12:33N 60°09' E 024°55'1 0.6
2014-Sep-14 11:34N 60°09' E 024°55'2316.2
2014-Sep-14 10:08N 59°46' E 024°49'1220.6
2014-Sep-14 09:33N 59°35' E 024°42'8 8.2
2014-Sep-14 08:32N 59°27' E 024°46'3 3.0
2014-Sep-14 07:34N 59°30' E 024°45'2319.1
2014-Sep-14 06:22N 59°52' E 024°51'1619.6
2014-Sep-14 05:34N 60°08' E 024°54'1 1.4
2014-Sep-14 04:31N 60°09' E 024°55'0 0.0
2014-Sep-14 03:31N 60°09' E 024°55'0 0.0
2014-Sep-14 02:31N 60°09' E 024°55'0 0.0
2014-Sep-14 01:31N 60°09' E 024°55'0 0.0
2014-Sep-13 21:31N 60°09' E 024°55'0 0.0
2014-Sep-13 20:31N 60°09' E 024°55'0 0.0
2014-Sep-13 19:31N 60°09' E 024°55'0 0.2
2014-Sep-13 18:33N 60°09' E 024°55'1919.0
2014-Sep-13 17:32N 59°50' E 024°49'2121.7
2014-Sep-13 16:33N 59°29' E 024°47'2 1.8
2014-Sep-13 15:32N 59°27' E 024°46'9 9.5
2014-Sep-13 14:33N 59°35' E 024°40'2316.8
2014-Sep-13 13:11N 59°58' E 024°53'1116.7
2014-Sep-13 12:33N 60°08' E 024°54'1 1.3
2014-Sep-13 11:33N 60°09' E 024°55'3316.4
2014-Sep-13 09:33N 59°37' E 024°41'1110.4
2014-Sep-13 08:31N 59°27' E 024°46'  
Track history (hours):
 
Tides and Currents Weather Stations Pressure Air Temp Water Temp Dewpoint Dewpoint Depression Visibility Wind Speed Wind Dir Waves Ship Positions

Finlandia

Last reported at 2014-Sep-23 07:33 UTC. Time now 2014-Sep-23 08:24 UTC.
Position N 59°29' E 024°45'.

Length 175 m; draft 7 m.

Type: Ship (hazmat cat A). MMSI: 230628000.

Date/timePositionNaut miles runAvg speedWind from/ knotsBaromVisibWave heightAir tempDewpointWater temp
2014-Sep-23 07:33N 59°29' E 024°45'2020.1
2014-Sep-23 06:33N 59°49' E 024°47'2019.7
2014-Sep-23 05:33N 60°09' E 024°54'1 0.7
2014-Sep-23 04:32N 60°09' E 024°55'0 0.0
2014-Sep-23 03:32N 60°09' E 024°55'0 0.0
2014-Sep-23 02:32N 60°09' E 024°55'0 0.0
2014-Sep-23 01:32N 60°09' E 024°55'0 0.0
2014-Sep-23 00:32N 60°09' E 024°55'0 0.0
2014-Sep-22 23:32N 60°09' E 024°55'0 0.0
2014-Sep-22 22:32N 60°09' E 024°55'0 0.0
2014-Sep-22 21:32N 60°09' E 024°55'0 0.0
2014-Sep-22 20:32N 60°09' E 024°55'0 0.0
2014-Sep-22 19:32N 60°09' E 024°55'1 0.8
2014-Sep-22 18:33N 60°09' E 024°54'2221.7
2014-Sep-22 17:33N 59°47' E 024°49'2020.3
2014-Sep-22 16:34N 59°27' E 024°46'0 0.3
2014-Sep-22 15:33N 59°27' E 024°46'1211.6
2014-Sep-22 14:32N 59°38' E 024°40'2017.2
2014-Sep-22 13:23N 59°57' E 024°53'1214.8
2014-Sep-22 12:34N 60°09' E 024°55'0 0.3
2014-Sep-22 11:33N 60°09' E 024°55'2315.5
2014-Sep-22 10:04N 59°46' E 024°50'1120.3
2014-Sep-22 09:30N 59°36' E 024°41'9 6.9
2014-Sep-22 08:09N 59°27' E 024°46'4 7.0
2014-Sep-22 07:30N 59°31' E 024°43'1819.3
2014-Sep-22 06:33N 59°49' E 024°47'1919.2
2014-Sep-22 05:33N 60°08' E 024°54'1 1.1
2014-Sep-22 04:31N 60°09' E 024°55'0 0.0
2014-Sep-22 03:28N 60°09' E 024°55'0 0.0
2014-Sep-22 02:31N 60°09' E 024°55'0 0.0
2014-Sep-22 01:19N 60°09' E 024°55'0 0.0
2014-Sep-22 00:19N 60°09' E 024°55'0 0.0
2014-Sep-21 23:25N 60°09' E 024°55'0 0.0
2014-Sep-21 22:28N 60°09' E 024°55'0 0.0
2014-Sep-21 21:31N 60°09' E 024°55'0 0.0
2014-Sep-21 20:31N 60°09' E 024°55'0 0.0
2014-Sep-21 19:31N 60°09' E 024°55'0 0.3
2014-Sep-21 18:33N 60°09' E 024°55'2020.0
2014-Sep-21 17:33N 59°50' E 024°46'2322.6
2014-Sep-21 16:34N 59°27' E 024°47'1 0.6
2014-Sep-21 15:33N 59°27' E 024°46'6 5.5
2014-Sep-21 14:33N 59°32' E 024°43'2621.3
2014-Sep-21 13:19N 59°58' E 024°54'1115.0
2014-Sep-21 12:33N 60°09' E 024°55'0 0.0
2014-Sep-21 11:33N 60°09' E 024°55'3517.4
2014-Sep-21 09:34N 59°35' E 024°42'9 8.5
2014-Sep-21 08:31N 59°27' E 024°46'3 3.2
2014-Sep-21 07:33N 59°30' E 024°45'2118.8
2014-Sep-21 06:26N 59°51' E 024°48'1719.4
2014-Sep-21 05:33N 60°07' E 024°54'2 1.8
2014-Sep-21 04:32N 60°09' E 024°55'0 0.0
2014-Sep-21 03:29N 60°09' E 024°55'0 0.0
2014-Sep-21 02:32N 60°09' E 024°55'0 0.0
2014-Sep-21 01:32N 60°09' E 024°55'0 0.0
2014-Sep-21 00:32N 60°09' E 024°55'0 0.0
2014-Sep-20 23:32N 60°09' E 024°55'0 0.0
2014-Sep-20 22:32N 60°09' E 024°55'0 0.0
2014-Sep-20 21:29N 60°09' E 024°55'0 0.0
2014-Sep-20 20:32N 60°09' E 024°55'0 0.0
2014-Sep-20 19:32N 60°09' E 024°55'0 0.2
2014-Sep-20 18:33N 60°09' E 024°55'2019.8
2014-Sep-20 17:34N 59°50' E 024°46'2222.0
2014-Sep-20 16:34N 59°28' E 024°47'1 1.3
2014-Sep-20 15:33N 59°27' E 024°46'1110.7
2014-Sep-20 14:33N 59°37' E 024°40'2217.0
2014-Sep-20 13:16N 59°58' E 024°54'1115.4
2014-Sep-20 12:34N 60°09' E 024°54'1 0.6
2014-Sep-20 11:32N 60°09' E 024°55'3216.2
2014-Sep-20 09:33N 59°38' E 024°42'1110.8
2014-Sep-20 08:31N 59°27' E 024°46'4 3.8
2014-Sep-20 07:33N 59°30' E 024°44'2019.4
2014-Sep-20 06:31N 59°50' E 024°46'1818.9
2014-Sep-20 05:33N 60°08' E 024°54'1 1.2
2014-Sep-20 04:31N 60°09' E 024°55'0 0.0
2014-Sep-20 03:28N 60°09' E 024°55'0 0.0
2014-Sep-20 02:19N 60°09' E 024°55'0 0.0
2014-Sep-20 01:31N 60°09' E 024°55'0 0.0
2014-Sep-19 23:31N 60°09' E 024°55'0 0.0
2014-Sep-19 22:31N 60°09' E 024°55'0 0.0
2014-Sep-19 21:31N 60°09' E 024°55'0 0.0
2014-Sep-19 20:31N 60°09' E 024°55'0 0.0
2014-Sep-19 19:31N 60°09' E 024°55'0 0.4
2014-Sep-19 18:28N 60°09' E 024°55'1920.7
2014-Sep-19 17:34N 59°50' E 024°48'2322.8
2014-Sep-19 16:33N 59°28' E 024°47'1 0.9
2014-Sep-19 15:33N 59°27' E 024°46'1111.2
2014-Sep-19 14:34N 59°38' E 024°40'1817.5
2014-Sep-19 13:31N 59°55' E 024°52'1415.0
2014-Sep-19 12:33N 60°09' E 024°55'0 0.1
2014-Sep-19 11:33N 60°09' E 024°55'3416.9
2014-Sep-19 09:33N 59°36' E 024°41'10 9.3
2014-Sep-19 08:30N 59°27' E 024°46'4 4.1
2014-Sep-19 07:34N 59°31' E 024°44'1919.4
2014-Sep-19 06:34N 59°50' E 024°47'1919.0
2014-Sep-19 05:33N 60°09' E 024°54'1 0.7
2014-Sep-19 04:31N 60°09' E 024°55'0 0.0
2014-Sep-19 03:28N 60°09' E 024°55'0 0.0
2014-Sep-19 02:31N 60°09' E 024°55'0 0.0
2014-Sep-19 01:28N 60°09' E 024°55'0 0.0
2014-Sep-19 00:31N 60°09' E 024°55'0 0.0
2014-Sep-18 23:25N 60°09' E 024°55'0 0.0
2014-Sep-18 22:31N 60°09' E 024°55'0 0.0
2014-Sep-18 21:31N 60°09' E 024°55'0 0.0
2014-Sep-18 20:31N 60°09' E 024°55'0 0.0
2014-Sep-18 19:31N 60°09' E 024°55'0 0.5
2014-Sep-18 18:33N 60°09' E 024°55'2321.7
2014-Sep-18 17:28N 59°46' E 024°49'1920.4
2014-Sep-18 16:33N 59°27' E 024°46'0 0.3
2014-Sep-18 15:34N 59°27' E 024°46'1110.9
2014-Sep-18 14:33N 59°37' E 024°40'1917.4
2014-Sep-18 13:29N 59°55' E 024°52'1415.2
2014-Sep-18 12:33N 60°09' E 024°55'1 0.5
2014-Sep-18 11:31N 60°09' E 024°55'2316.0
2014-Sep-18 10:04N 59°46' E 024°49'1020.3
2014-Sep-18 09:33N 59°36' E 024°41'10 9.6
2014-Sep-18 08:31N 59°27' E 024°46'3 2.7
2014-Sep-18 07:33N 59°29' E 024°45'1918.8
2014-Sep-18 06:33N 59°48' E 024°46'2019.7
2014-Sep-18 05:33N 60°07' E 024°54'2 1.9
2014-Sep-18 04:32N 60°09' E 024°55'0 0.0
2014-Sep-18 03:32N 60°09' E 024°55'0 0.0
2014-Sep-18 02:32N 60°09' E 024°55'0 0.0
2014-Sep-18 01:17N 60°09' E 024°55'0 0.0
2014-Sep-18 00:32N 60°09' E 024°55'0 0.0
2014-Sep-17 23:32N 60°09' E 024°55'0 0.0
2014-Sep-17 22:32N 60°09' E 024°55'0 0.0
2014-Sep-17 21:32N 60°09' E 024°55'0 0.0
2014-Sep-17 20:23N 60°09' E 024°55'0 0.0
2014-Sep-17 19:29N 60°09' E 024°55'1 0.6
2014-Sep-17 18:33N 60°09' E 024°55'2121.1
2014-Sep-17 17:33N 59°48' E 024°46'2121.1
2014-Sep-17 16:34N 59°27' E 024°47'1 0.5
2014-Sep-17 15:24N 59°27' E 024°46'1112.6
2014-Sep-17 14:34N 59°37' E 024°40'1917.5
2014-Sep-17 13:30N 59°54' E 024°52'1515.5
2014-Sep-17 12:33N 60°09' E 024°55'0 0.4
2014-Sep-17 11:31N 60°09' E 024°55'1413.9
2014-Sep-17 10:30N 59°55' E 024°51'1920.1
2014-Sep-17 09:33N 59°37' E 024°41'1110.4
2014-Sep-17 08:33N 59°27' E 024°46'3 3.0
2014-Sep-17 07:33N 59°30' E 024°45'1919.1
2014-Sep-17 06:34N 59°49' E 024°49'2019.7
2014-Sep-17 05:33N 60°08' E 024°54'1 1.1
2014-Sep-17 04:31N 60°09' E 024°55'0 0.0
2014-Sep-17 03:31N 60°09' E 024°55'0 0.0
2014-Sep-17 02:26N 60°09' E 024°55'0 0.0
2014-Sep-17 01:29N 60°09' E 024°55'0 0.0
2014-Sep-17 00:31N 60°09' E 024°55'0 0.0
2014-Sep-16 23:32N 60°09' E 024°55'0 0.0
2014-Sep-16 21:31N 60°09' E 024°55'0 0.0
2014-Sep-16 20:32N 60°09' E 024°55'0 0.0
2014-Sep-16 19:28N 60°09' E 024°55'0 0.5
2014-Sep-16 18:33N 60°09' E 024°55'2321.3
2014-Sep-16 17:29N 59°46' E 024°49'1921.0
2014-Sep-16 16:34N 59°27' E 024°46'0 0.3
2014-Sep-16 15:33N 59°27' E 024°46'1111.5
2014-Sep-16 14:33N 59°38' E 024°40'2217.6
2014-Sep-16 13:20N 59°58' E 024°54'1114.3
2014-Sep-16 12:34N 60°09' E 024°55'0 0.2
2014-Sep-16 11:33N 60°09' E 024°55'2417.0
2014-Sep-16 10:06N 59°45' E 024°48'1120.3
2014-Sep-16 09:33N 59°34' E 024°42'8 7.7
2014-Sep-16 08:33N 59°27' E 024°46'4 3.9
2014-Sep-16 07:33N 59°30' E 024°44'1919.4
2014-Sep-16 06:33N 59°50' E 024°49'1919.1
2014-Sep-16 05:34N 60°09' E 024°54'1 0.7
2014-Sep-16 04:33N 60°09' E 024°55'0 0.0
2014-Sep-16 03:33N 60°09' E 024°55'0 0.0
2014-Sep-16 02:33N 60°09' E 024°55'0 0.0
2014-Sep-16 01:30N 60°09' E 024°55'0 0.0
2014-Sep-16 00:33N 60°09' E 024°55'0 0.0
2014-Sep-15 23:30N 60°09' E 024°55'0 0.0
2014-Sep-15 22:21N 60°09' E 024°55'0 0.0
2014-Sep-15 21:24N 60°09' E 024°55'0 0.0
2014-Sep-15 20:30N 60°09' E 024°55'0 0.0
2014-Sep-15 19:33N 60°09' E 024°55'1 1.2
2014-Sep-15 18:33N 60°08' E 024°54'2222.1
2014-Sep-15 17:34N 59°46' E 024°45'2019.7
2014-Sep-15 16:33N 59°27' E 024°46'0 0.0
2014-Sep-15 15:31N 59°27' E 024°46'1211.5
2014-Sep-15 14:31N 59°38' E 024°40'1717.1
2014-Sep-15 13:33N 59°54' E 024°52'1515.5
2014-Sep-15 12:33N 60°09' E 024°55'0 0.5
2014-Sep-15 11:33N 60°09' E 024°55'2115.6
2014-Sep-15 10:13N 59°49' E 024°48'1420.6
2014-Sep-15 09:33N 59°35' E 024°42'6 3.0
2014-Sep-15 07:33N 59°30' E 024°45'1918.8
2014-Sep-15 06:33N 59°48' E 024°49'2019.8
2014-Sep-15 05:33N 60°08' E 024°54'2 1.6
2014-Sep-15 04:31N 60°09' E 024°55'0 0.0
2014-Sep-15 03:31N 60°09' E 024°55'0 0.0
2014-Sep-15 02:31N 60°09' E 024°55'0 0.0
2014-Sep-15 01:28N 60°09' E 024°55'0 0.0
2014-Sep-15 00:31N 60°09' E 024°55'0 0.0
2014-Sep-14 23:19N 60°09' E 024°55'0 0.0
2014-Sep-14 22:25N 60°09' E 024°55'0 0.0
2014-Sep-14 21:31N 60°09' E 024°55'0 0.0
2014-Sep-14 20:22N 60°09' E 024°55'0 0.0
2014-Sep-14 19:31N 60°09' E 024°55'0 0.4
2014-Sep-14 18:33N 60°09' E 024°55'2321.0
2014-Sep-14 17:29N 59°47' E 024°48'2021.4
2014-Sep-14 16:33N 59°27' E 024°46'0 0.3
2014-Sep-14 15:33N 59°27' E 024°46'6 5.9
2014-Sep-14 14:33N 59°32' E 024°43'2520.1
2014-Sep-14 13:20N 59°57' E 024°53'1215.9
2014-Sep-14 12:33N 60°09' E 024°55'1 0.6
2014-Sep-14 11:34N 60°09' E 024°55'2316.2
2014-Sep-14 10:08N 59°46' E 024°49'1220.6
2014-Sep-14 09:33N 59°35' E 024°42'8 8.2
2014-Sep-14 08:32N 59°27' E 024°46'3 3.0
2014-Sep-14 07:34N 59°30' E 024°45'2319.1
2014-Sep-14 06:22N 59°52' E 024°51'1619.6
2014-Sep-14 05:34N 60°08' E 024°54'1 1.4
2014-Sep-14 04:31N 60°09' E 024°55'0 0.0
2014-Sep-14 03:31N 60°09' E 024°55'0 0.0
2014-Sep-14 02:31N 60°09' E 024°55'0 0.0
2014-Sep-14 01:31N 60°09' E 024°55'0 0.0
2014-Sep-13 21:31N 60°09' E 024°55'0 0.0
2014-Sep-13 20:31N 60°09' E 024°55'0 0.0
2014-Sep-13 19:31N 60°09' E 024°55'0 0.2
2014-Sep-13 18:33N 60°09' E 024°55'1919.0
2014-Sep-13 17:32N 59°50' E 024°49'2121.7
2014-Sep-13 16:33N 59°29' E 024°47'2 1.8
2014-Sep-13 15:32N 59°27' E 024°46'9 9.5
2014-Sep-13 14:33N 59°35' E 024°40'2316.8
2014-Sep-13 13:11N 59°58' E 024°53'1116.7
2014-Sep-13 12:33N 60°08' E 024°54'1 1.3
2014-Sep-13 11:33N 60°09' E 024°55'3316.4
2014-Sep-13 09:33N 59°37' E 024°41'1110.4
2014-Sep-13 08:31N 59°27' E 024°46'  

Dump ship's entire track history